LPCB weather

Aerodromo de Castelo Branco
Castelo Branco, Castelo Branco District, Portugal

Public forecast

Using degrees Celsius for public forecast. Weather courtesy of forecast.io.

Closest aviation weather report (METAR) to Aerodromo de Castelo Branco

Report is more than 6 hours old.

Closest report is Tancos Airbase, 48.2 nm (89.2 km) WSW. Retrieved 2009/08/31 14:00 UTC (10 years ago):

LPTN 311400Z /////KT CAVOK 35/19 Q1011 RMK ESTMD WND 28005KT

Closest aviation forecast (TAF) to Aerodromo de Castelo Branco

Forecast is more than 12 hours old.

Closest forecast is Covilhã Hospital Helipad, 25.4 nm (47.0 km) N. Retrieved 2010/03/02 21:54 UTC (10 years ago):

TAF TLPCL 022154Z 0300/0400 10018KT 9999 SCT026 SCT300